sensor_id;sensor_type;location;lat;lon;timestamp;pressure;altitude;pressure_sealevel;temperature;humidity
45763;BME280;37512;52.408;13.356;2022-11-15T00:02:03;101045.94;;;4.77;100.00
45763;BME280;37512;52.408;13.356;2022-11-15T00:06:06;101042.63;;;4.66;100.00
45763;BME280;37512;52.408;13.356;2022-11-15T00:10:07;101045.63;;;4.47;100.00
45763;BME280;37512;52.408;13.356;2022-11-15T00:14:09;101035.69;;;4.37;100.00
45763;BME280;37512;52.408;13.356;2022-11-15T00:18:14;101050.63;;;4.45;100.00
45763;BME280;37512;52.408;13.356;2022-11-15T00:22:15;101037.19;;;4.44;100.00
45763;BME280;37512;52.408;13.356;2022-11-15T00:26:17;101038.72;;;4.27;100.00
45763;BME280;37512;52.408;13.356;2022-11-15T00:30:19;101039.78;;;4.49;100.00
45763;BME280;37512;52.408;13.356;2022-11-15T00:34:20;101016.75;;;4.58;100.00
45763;BME280;37512;52.408;13.356;2022-11-15T00:38:22;101015.34;;;4.38;100.00
45763;BME280;37512;52.408;13.356;2022-11-15T00:42:23;101030.16;;;4.60;100.00
45763;BME280;37512;52.408;13.356;2022-11-15T00:46:25;101020.91;;;4.56;100.00
45763;BME280;37512;52.408;13.356;2022-11-15T00:50:26;101010.69;;;4.16;100.00
45763;BME280;37512;52.408;13.356;2022-11-15T00:54:28;101013.38;;;4.08;100.00
45763;BME280;37512;52.408;13.356;2022-11-15T00:58:29;101005.72;;;3.96;100.00
45763;BME280;37512;52.408;13.356;2022-11-15T01:02:31;101004.41;;;4.16;100.00
45763;BME280;37512;52.408;13.356;2022-11-15T01:06:32;100999.63;;;4.30;100.00
45763;BME280;37512;52.408;13.356;2022-11-15T01:10:34;100999.31;;;4.32;100.00
45763;BME280;37512;52.408;13.356;2022-11-15T01:14:35;100996.63;;;4.40;100.00
45763;BME280;37512;52.408;13.356;2022-11-15T01:18:37;100998.16;;;4.33;100.00
45763;BME280;37512;52.408;13.356;2022-11-15T01:22:39;100987.72;;;4.44;100.00
45763;BME280;37512;52.408;13.356;2022-11-15T01:26:40;100990.63;;;4.38;100.00
45763;BME280;37512;52.408;13.356;2022-11-15T01:30:42;100980.38;;;4.30;100.00
45763;BME280;37512;52.408;13.356;2022-11-15T01:34:43;100971.22;;;4.44;100.00
45763;BME280;37512;52.408;13.356;2022-11-15T01:38:44;100964.59;;;4.36;100.00
45763;BME280;37512;52.408;13.356;2022-11-15T01:42:46;100957.63;;;4.38;100.00
45763;BME280;37512;52.408;13.356;2022-11-15T01:46:48;100954.66;;;4.17;100.00
45763;BME280;37512;52.408;13.356;2022-11-15T01:50:49;100948.97;;;4.14;100.00
45763;BME280;37512;52.408;13.356;2022-11-15T01:55:22;100935.44;;;4.26;100.00
45763;BME280;37512;52.408;13.356;2022-11-15T01:59:25;100939.56;;;4.15;100.00
45763;BME280;37512;52.408;13.356;2022-11-15T02:03:35;100927.63;;;4.19;100.00
45763;BME280;37512;52.408;13.356;2022-11-15T02:07:39;100930.88;;;4.22;100.00
45763;BME280;37512;52.408;13.356;2022-11-15T02:11:41;100917.13;;;4.22;100.00
45763;BME280;37512;52.408;13.356;2022-11-15T02:29:06;100922.03;;;3.93;100.00
45763;BME280;37512;52.408;13.356;2022-11-15T02:42:02;100926.38;;;3.63;100.00
45763;BME280;37512;52.408;13.356;2022-11-15T02:46:12;100923.44;;;3.60;100.00
45763;BME280;37512;52.408;13.356;2022-11-15T02:50:19;100908.78;;;3.42;100.00
45763;BME280;37512;52.408;13.356;2022-11-15T02:54:25;100908.63;;;3.61;100.00
45763;BME280;37512;52.408;13.356;2022-11-15T03:07:19;100905.59;;;3.48;100.00
45763;BME280;37512;52.408;13.356;2022-11-15T03:11:23;100895.75;;;3.47;100.00
45763;BME280;37512;52.408;13.356;2022-11-15T03:15:35;100890.44;;;3.51;100.00
45763;BME280;37512;52.408;13.356;2022-11-15T03:19:47;100900.25;;;3.43;100.00
45763;BME280;37512;52.408;13.356;2022-11-15T03:23:51;100902.28;;;3.60;100.00
45763;BME280;37512;52.408;13.356;2022-11-15T03:27:57;100906.22;;;3.68;100.00
45763;BME280;37512;52.408;13.356;2022-11-15T03:32:07;100902.72;;;3.53;100.00
45763;BME280;37512;52.408;13.356;2022-11-15T03:36:11;100894.03;;;3.51;100.00
45763;BME280;37512;52.408;13.356;2022-11-15T03:40:13;100889.50;;;3.55;100.00
45763;BME280;37512;52.408;13.356;2022-11-15T03:44:21;100896.13;;;3.54;100.00
45763;BME280;37512;52.408;13.356;2022-11-15T03:48:30;100895.50;;;3.35;100.00
45763;BME280;37512;52.408;13.356;2022-11-15T03:52:35;100904.38;;;3.32;100.00
45763;BME280;37512;52.408;13.356;2022-11-15T03:56:38;100900.88;;;3.40;100.00
45763;BME280;37512;52.408;13.356;2022-11-15T04:00:39;100895.00;;;3.33;100.00
45763;BME280;37512;52.408;13.356;2022-11-15T04:04:41;100890.28;;;3.47;100.00
45763;BME280;37512;52.408;13.356;2022-11-15T04:08:42;100886.72;;;3.47;100.00
45763;BME280;37512;52.408;13.356;2022-11-15T04:12:45;100883.22;;;3.32;100.00
45763;BME280;37512;52.408;13.356;2022-11-15T04:16:50;100881.41;;;3.28;100.00
45763;BME280;37512;52.408;13.356;2022-11-15T04:20:52;100882.78;;;3.39;100.00
45763;BME280;37512;52.408;13.356;2022-11-15T04:25:11;100876.91;;;3.54;100.00
45763;BME280;37512;52.408;13.356;2022-11-15T04:29:13;100874.38;;;3.58;100.00
45763;BME280;37512;52.408;13.356;2022-11-15T04:33:36;100871.44;;;3.54;100.00
45763;BME280;37512;52.408;13.356;2022-11-15T04:37:37;100874.53;;;3.62;100.00
45763;BME280;37512;52.408;13.356;2022-11-15T04:41:39;100869.25;;;3.43;100.00
45763;BME280;37512;52.408;13.356;2022-11-15T04:45:40;100870.19;;;3.38;100.00
45763;BME280;37512;52.408;13.356;2022-11-15T04:49:42;100857.00;;;3.40;100.00
45763;BME280;37512;52.408;13.356;2022-11-15T04:53:45;100876.56;;;3.47;100.00
45763;BME280;37512;52.408;13.356;2022-11-15T04:57:46;100867.31;;;3.43;100.00
45763;BME280;37512;52.408;13.356;2022-11-15T05:01:48;100862.97;;;3.20;100.00
45763;BME280;37512;52.408;13.356;2022-11-15T05:05:50;100867.13;;;3.40;100.00
45763;BME280;37512;52.408;13.356;2022-11-15T05:09:51;100869.94;;;3.48;100.00
45763;BME280;37512;52.408;13.356;2022-11-15T05:13:53;100870.44;;;3.50;100.00
45763;BME280;37512;52.408;13.356;2022-11-15T05:17:58;100861.69;;;3.48;100.00
45763;BME280;37512;52.408;13.356;2022-11-15T05:22:01;100867.19;;;3.48;100.00
45763;BME280;37512;52.408;13.356;2022-11-15T05:26:03;100865.44;;;3.52;100.00
45763;BME280;37512;52.408;13.356;2022-11-15T05:30:10;100869.56;;;3.41;100.00
45763;BME280;37512;52.408;13.356;2022-11-15T05:34:11;100860.75;;;3.53;100.00
45763;BME280;37512;52.408;13.356;2022-11-15T05:38:13;100863.94;;;3.46;100.00
45763;BME280;37512;52.408;13.356;2022-11-15T05:42:15;100859.75;;;3.49;100.00
45763;BME280;37512;52.408;13.356;2022-11-15T05:46:17;100866.50;;;3.65;100.00
45763;BME280;37512;52.408;13.356;2022-11-15T05:50:19;100862.84;;;3.47;100.00
45763;BME280;37512;52.408;13.356;2022-11-15T05:54:22;100860.53;;;3.41;100.00
45763;BME280;37512;52.408;13.356;2022-11-15T05:58:24;100861.44;;;3.59;100.00
45763;BME280;37512;52.408;13.356;2022-11-15T06:02:26;100860.50;;;3.63;100.00
45763;BME280;37512;52.408;13.356;2022-11-15T06:06:28;100865.06;;;3.68;100.00
45763;BME280;37512;52.408;13.356;2022-11-15T06:10:29;100853.06;;;3.64;100.00
45763;BME280;37512;52.408;13.356;2022-11-15T06:14:31;100845.88;;;3.76;100.00
45763;BME280;37512;52.408;13.356;2022-11-15T06:18:33;100862.53;;;3.80;100.00
45763;BME280;37512;52.408;13.356;2022-11-15T06:22:35;100869.25;;;3.65;100.00
45763;BME280;37512;52.408;13.356;2022-11-15T06:26:36;100877.28;;;3.62;100.00
45763;BME280;37512;52.408;13.356;2022-11-15T06:30:38;100875.53;;;3.66;100.00
45763;BME280;37512;52.408;13.356;2022-11-15T06:34:39;100879.81;;;3.49;100.00
45763;BME280;37512;52.408;13.356;2022-11-15T06:38:41;100881.28;;;3.55;100.00
45763;BME280;37512;52.408;13.356;2022-11-15T06:42:42;100878.38;;;3.52;100.00
45763;BME280;37512;52.408;13.356;2022-11-15T06:46:44;100886.53;;;3.43;100.00
45763;BME280;37512;52.408;13.356;2022-11-15T06:50:55;100893.16;;;3.42;100.00
45763;BME280;37512;52.408;13.356;2022-11-15T06:54:57;100890.94;;;3.53;100.00
45763;BME280;37512;52.408;13.356;2022-11-15T06:58:58;100899.38;;;3.56;100.00
45763;BME280;37512;52.408;13.356;2022-11-15T07:03:00;100897.63;;;3.61;100.00
45763;BME280;37512;52.408;13.356;2022-11-15T07:07:02;100896.00;;;3.60;100.00
45763;BME280;37512;52.408;13.356;2022-11-15T07:11:06;100903.97;;;3.70;100.00
45763;BME280;37512;52.408;13.356;2022-11-15T07:15:08;100898.31;;;3.66;100.00
45763;BME280;37512;52.408;13.356;2022-11-15T07:19:10;100909.22;;;3.58;100.00
45763;BME280;37512;52.408;13.356;2022-11-15T07:23:11;100907.44;;;3.84;100.00
45763;BME280;37512;52.408;13.356;2022-11-15T07:27:13;100905.56;;;3.93;100.00
45763;BME280;37512;52.408;13.356;2022-11-15T07:31:14;100909.09;;;3.94;100.00
45763;BME280;37512;52.408;13.356;2022-11-15T07:35:16;100904.00;;;4.10;100.00
45763;BME280;37512;52.408;13.356;2022-11-15T07:39:17;100912.91;;;4.07;100.00
45763;BME280;37512;52.408;13.356;2022-11-15T07:43:19;100908.28;;;4.25;100.00
45763;BME280;37512;52.408;13.356;2022-11-15T07:47:20;100911.53;;;4.35;100.00
45763;BME280;37512;52.408;13.356;2022-11-15T07:51:22;100903.66;;;4.51;100.00
45763;BME280;37512;52.408;13.356;2022-11-15T07:55:25;100905.78;;;4.54;100.00
45763;BME280;37512;52.408;13.356;2022-11-15T07:59:28;100897.59;;;4.80;100.00
45763;BME280;37512;52.408;13.356;2022-11-15T08:03:29;100900.03;;;4.82;100.00
45763;BME280;37512;52.408;13.356;2022-11-15T08:07:31;100890.47;;;4.97;100.00
45763;BME280;37512;52.408;13.356;2022-11-15T08:11:33;100880.28;;;5.32;100.00
45763;BME280;37512;52.408;13.356;2022-11-15T08:15:35;100886.28;;;5.43;100.00
45763;BME280;37512;52.408;13.356;2022-11-15T08:19:37;100887.34;;;5.68;100.00
45763;BME280;37512;52.408;13.356;2022-11-15T08:23:39;100882.06;;;6.10;100.00
45763;BME280;37512;52.408;13.356;2022-11-15T08:27:40;100870.56;;;6.38;100.00
45763;BME280;37512;52.408;13.356;2022-11-15T08:31:42;100871.94;;;6.53;100.00
45763;BME280;37512;52.408;13.356;2022-11-15T08:35:44;100863.09;;;6.89;100.00
45763;BME280;37512;52.408;13.356;2022-11-15T08:39:45;100861.94;;;7.11;100.00
45763;BME280;37512;52.408;13.356;2022-11-15T08:43:47;100869.38;;;6.98;100.00
45763;BME280;37512;52.408;13.356;2022-11-15T08:47:48;100872.63;;;7.33;100.00
45763;BME280;37512;52.408;13.356;2022-11-15T08:51:54;100865.59;;;7.36;100.00
45763;BME280;37512;52.408;13.356;2022-11-15T08:55:56;100866.06;;;7.71;100.00
45763;BME280;37512;52.408;13.356;2022-11-15T08:59:57;100857.94;;;7.87;100.00
45763;BME280;37512;52.408;13.356;2022-11-15T09:03:59;100860.78;;;7.79;100.00
45763;BME280;37512;52.408;13.356;2022-11-15T09:08:00;100861.53;;;8.37;100.00
45763;BME280;37512;52.408;13.356;2022-11-15T09:12:22;100855.25;;;8.77;100.00
45763;BME280;37512;52.408;13.356;2022-11-15T09:16:23;100852.19;;;9.07;100.00
45763;BME280;37512;52.408;13.356;2022-11-15T09:20:25;100859.34;;;9.36;100.00
45763;BME280;37512;52.408;13.356;2022-11-15T09:24:26;100863.81;;;9.40;100.00
45763;BME280;37512;52.408;13.356;2022-11-15T09:28:28;100869.81;;;8.62;100.00
45763;BME280;37512;52.408;13.356;2022-11-15T09:32:31;100866.28;;;9.30;100.00
45763;BME280;37512;52.408;13.356;2022-11-15T09:36:39;100864.34;;;9.74;100.00
45763;BME280;37512;52.408;13.356;2022-11-15T09:40:41;100873.81;;;9.73;100.00
45763;BME280;37512;52.408;13.356;2022-11-15T09:44:52;100878.38;;;9.81;100.00
45763;BME280;37512;52.408;13.356;2022-11-15T09:48:59;100868.53;;;9.84;100.00
45763;BME280;37512;52.408;13.356;2022-11-15T09:53:01;100869.53;;;9.92;100.00
45763;BME280;37512;52.408;13.356;2022-11-15T09:57:13;100854.06;;;9.91;100.00
45763;BME280;37512;52.408;13.356;2022-11-15T10:01:22;100862.00;;;10.24;100.00
45763;BME280;37512;52.408;13.356;2022-11-15T10:05:37;100854.41;;;10.53;100.00
45763;BME280;37512;52.408;13.356;2022-11-15T10:09:56;100845.59;;;10.66;100.00
45763;BME280;37512;52.408;13.356;2022-11-15T10:14:04;100835.75;;;11.08;100.00
45763;BME280;37512;52.408;13.356;2022-11-15T10:22:29;100822.44;;;10.78;100.00
45763;BME280;37512;52.408;13.356;2022-11-15T10:26:32;100814.06;;;11.56;100.00
45763;BME280;37512;52.408;13.356;2022-11-15T10:30:36;100809.34;;;12.03;100.00
45763;BME280;37512;52.408;13.356;2022-11-15T10:34:38;100801.66;;;12.46;97.34
45763;BME280;37512;52.408;13.356;2022-11-15T10:39:00;100803.97;;;12.70;96.59
45763;BME280;37512;52.408;13.356;2022-11-15T10:43:18;100795.22;;;12.42;97.03
45763;BME280;37512;52.408;13.356;2022-11-15T10:47:31;100788.09;;;12.18;98.17
45763;BME280;37512;52.408;13.356;2022-11-15T10:51:44;100789.03;;;13.19;93.08
45763;BME280;37512;52.408;13.356;2022-11-15T10:55:48;100780.53;;;13.05;93.52
45763;BME280;37512;52.408;13.356;2022-11-15T10:59:54;100783.09;;;12.87;95.56
45763;BME280;37512;52.408;13.356;2022-11-15T11:04:08;100776.94;;;13.83;88.65
45763;BME280;37512;52.408;13.356;2022-11-15T11:12:12;100762.53;;;13.77;86.45
45763;BME280;37512;52.408;13.356;2022-11-15T11:46:49;100742.97;;;14.29;84.81
45763;BME280;37512;52.408;13.356;2022-11-15T11:51:01;100735.00;;;15.37;78.00
45763;BME280;37512;52.408;13.356;2022-11-15T11:55:15;100726.56;;;15.04;77.38
45763;BME280;37512;52.408;13.356;2022-11-15T11:59:42;100717.84;;;16.06;71.76
45763;BME280;37512;52.408;13.356;2022-11-15T12:03:53;100715.44;;;15.65;72.26
45763;BME280;37512;52.408;13.356;2022-11-15T12:08:04;100696.63;;;16.05;71.06
45763;BME280;37512;52.408;13.356;2022-11-15T12:16:29;100709.53;;;16.98;66.03
45763;BME280;37512;52.408;13.356;2022-11-15T12:20:40;100700.09;;;16.56;68.32
45763;BME280;37512;52.408;13.356;2022-11-15T12:24:49;100698.19;;;17.20;62.63
45763;BME280;37512;52.408;13.356;2022-11-15T12:28:59;100693.44;;;17.06;63.27
45763;BME280;37512;52.408;13.356;2022-11-15T12:33:32;100686.78;;;17.45;62.72
45763;BME280;37512;52.408;13.356;2022-11-15T12:41:41;100673.59;;;16.75;63.18
45763;BME280;37512;52.408;13.356;2022-11-15T12:45:44;100674.25;;;17.56;61.53
45763;BME280;37512;52.408;13.356;2022-11-15T12:49:46;100665.84;;;17.01;62.70
45763;BME280;37512;52.408;13.356;2022-11-15T12:53:48;100656.72;;;17.90;60.52
45763;BME280;37512;52.408;13.356;2022-11-15T12:57:50;100658.31;;;16.87;62.59
45763;BME280;37512;52.408;13.356;2022-11-15T13:01:57;100654.34;;;16.81;64.21
45763;BME280;37512;52.408;13.356;2022-11-15T13:06:02;100661.41;;;17.59;61.47
45763;BME280;37512;52.408;13.356;2022-11-15T13:18:39;100653.25;;;17.72;63.66
45763;BME280;37512;52.408;13.356;2022-11-15T13:22:43;100635.22;;;16.61;66.60
45763;BME280;37512;52.408;13.356;2022-11-15T13:27:00;100645.53;;;16.86;65.36
45763;BME280;37512;52.408;13.356;2022-11-15T13:31:23;100631.88;;;16.03;69.74
45763;BME280;37512;52.408;13.356;2022-11-15T13:35:28;100630.66;;;16.01;70.48
45763;BME280;37512;52.408;13.356;2022-11-15T13:39:33;100636.59;;;17.54;64.91
45763;BME280;37512;52.408;13.356;2022-11-15T13:43:35;100636.22;;;17.52;64.37
45763;BME280;37512;52.408;13.356;2022-11-15T13:47:37;100636.44;;;16.57;69.07
45763;BME280;37512;52.408;13.356;2022-11-15T13:55:43;100625.09;;;15.97;74.13
45763;BME280;37512;52.408;13.356;2022-11-15T13:59:47;100624.63;;;16.13;73.70
45763;BME280;37512;52.408;13.356;2022-11-15T14:03:57;100624.28;;;15.97;72.93
45763;BME280;37512;52.408;13.356;2022-11-15T14:08:00;100625.94;;;14.90;77.75
45763;BME280;37512;52.408;13.356;2022-11-15T14:16:36;100632.47;;;14.25;83.10
45763;BME280;37512;52.408;13.356;2022-11-15T14:20:39;100619.31;;;14.21;84.93
45763;BME280;37512;52.408;13.356;2022-11-15T14:24:45;100620.22;;;14.51;83.39
45763;BME280;37512;52.408;13.356;2022-11-15T14:28:48;100611.41;;;14.45;82.23
45763;BME280;37512;52.408;13.356;2022-11-15T14:32:50;100610.56;;;13.53;87.81
45763;BME280;37512;52.408;13.356;2022-11-15T14:36:51;100612.69;;;13.74;88.03
45763;BME280;37512;52.408;13.356;2022-11-15T14:40:53;100614.53;;;13.49;90.31
45763;BME280;37512;52.408;13.356;2022-11-15T14:44:56;100609.94;;;13.26;92.98
45763;BME280;37512;52.408;13.356;2022-11-15T14:48:57;100614.94;;;12.28;100.00
45763;BME280;37512;52.408;13.356;2022-11-15T14:52:59;100614.19;;;12.01;100.00
45763;BME280;37512;52.408;13.356;2022-11-15T14:57:01;100613.72;;;12.25;100.00
45763;BME280;37512;52.408;13.356;2022-11-15T15:01:30;100604.78;;;12.09;100.00
45763;BME280;37512;52.408;13.356;2022-11-15T15:05:42;100591.91;;;11.44;100.00
45763;BME280;37512;52.408;13.356;2022-11-15T15:09:44;100599.53;;;11.24;100.00
45763;BME280;37512;52.408;13.356;2022-11-15T15:13:46;100594.72;;;11.21;100.00
45763;BME280;37512;52.408;13.356;2022-11-15T15:17:48;100595.34;;;11.34;100.00
45763;BME280;37512;52.408;13.356;2022-11-15T15:21:49;100592.88;;;11.55;100.00
45763;BME280;37512;52.408;13.356;2022-11-15T15:25:51;100577.16;;;11.40;100.00
45763;BME280;37512;52.408;13.356;2022-11-15T15:29:53;100573.66;;;11.43;100.00
45763;BME280;37512;52.408;13.356;2022-11-15T15:33:55;100581.00;;;10.82;100.00
45763;BME280;37512;52.408;13.356;2022-11-15T15:37:57;100583.44;;;10.64;100.00
45763;BME280;37512;52.408;13.356;2022-11-15T15:41:58;100584.34;;;10.49;100.00
45763;BME280;37512;52.408;13.356;2022-11-15T15:46:00;100575.47;;;10.62;100.00
45763;BME280;37512;52.408;13.356;2022-11-15T15:50:02;100568.66;;;10.17;100.00
45763;BME280;37512;52.408;13.356;2022-11-15T15:54:04;100568.94;;;10.12;100.00
45763;BME280;37512;52.408;13.356;2022-11-15T15:58:05;100562.53;;;10.08;100.00
45763;BME280;37512;52.408;13.356;2022-11-15T16:02:12;100569.97;;;9.84;100.00
45763;BME280;37512;52.408;13.356;2022-11-15T16:10:36;100554.88;;;9.82;100.00
45763;BME280;37512;52.408;13.356;2022-11-15T16:14:38;100559.53;;;9.78;100.00
45763;BME280;37512;52.408;13.356;2022-11-15T16:18:39;100559.84;;;9.92;100.00
45763;BME280;37512;52.408;13.356;2022-11-15T16:22:41;100553.47;;;9.92;100.00
45763;BME280;37512;52.408;13.356;2022-11-15T16:26:42;100552.78;;;9.40;100.00
45763;BME280;37512;52.408;13.356;2022-11-15T16:30:44;100548.09;;;9.44;100.00
45763;BME280;37512;52.408;13.356;2022-11-15T16:34:46;100546.38;;;9.20;100.00
45763;BME280;37512;52.408;13.356;2022-11-15T16:38:50;100550.84;;;9.09;100.00
45763;BME280;37512;52.408;13.356;2022-11-15T16:42:51;100547.72;;;9.26;100.00
45763;BME280;37512;52.408;13.356;2022-11-15T16:46:53;100549.16;;;9.04;100.00
45763;BME280;37512;52.408;13.356;2022-11-15T16:50:56;100539.97;;;9.00;100.00
45763;BME280;37512;52.408;13.356;2022-11-15T16:54:58;100543.00;;;8.79;100.00
45763;BME280;37512;52.408;13.356;2022-11-15T16:59:00;100543.97;;;8.87;100.00
45763;BME280;37512;52.408;13.356;2022-11-15T17:03:02;100537.47;;;8.79;100.00
45763;BME280;37512;52.408;13.356;2022-11-15T17:07:04;100537.75;;;8.74;100.00
45763;BME280;37512;52.408;13.356;2022-11-15T17:11:06;100534.34;;;8.49;100.00
45763;BME280;37512;52.408;13.356;2022-11-15T17:15:10;100534.16;;;8.57;100.00
45763;BME280;37512;52.408;13.356;2022-11-15T17:19:14;100528.28;;;8.59;100.00
45763;BME280;37512;52.408;13.356;2022-11-15T17:23:15;100527.38;;;8.71;100.00
45763;BME280;37512;52.408;13.356;2022-11-15T17:27:17;100525.84;;;8.73;100.00
45763;BME280;37512;52.408;13.356;2022-11-15T17:31:19;100524.09;;;8.81;100.00
45763;BME280;37512;52.408;13.356;2022-11-15T17:35:20;100531.03;;;8.75;100.00
45763;BME280;37512;52.408;13.356;2022-11-15T17:39:22;100526.50;;;8.83;100.00
45763;BME280;37512;52.408;13.356;2022-11-15T17:43:25;100517.31;;;8.63;100.00
45763;BME280;37512;52.408;13.356;2022-11-15T17:47:26;100518.72;;;8.56;100.00
45763;BME280;37512;52.408;13.356;2022-11-15T17:51:28;100518.53;;;8.05;100.00
45763;BME280;37512;52.408;13.356;2022-11-15T17:55:31;100514.06;;;8.01;100.00
45763;BME280;37512;52.408;13.356;2022-11-15T17:59:32;100532.56;;;8.12;100.00
45763;BME280;37512;52.408;13.356;2022-11-15T18:03:37;100528.56;;;8.26;100.00
45763;BME280;37512;52.408;13.356;2022-11-15T18:07:39;100527.59;;;8.34;100.00
45763;BME280;37512;52.408;13.356;2022-11-15T18:11:42;100528.56;;;8.26;100.00
45763;BME280;37512;52.408;13.356;2022-11-15T18:15:53;100523.91;;;8.30;100.00
45763;BME280;37512;52.408;13.356;2022-11-15T18:19:55;100520.25;;;8.10;100.00
45763;BME280;37512;52.408;13.356;2022-11-15T18:23:58;100513.91;;;7.81;100.00
45763;BME280;37512;52.408;13.356;2022-11-15T18:28:00;100507.03;;;8.03;100.00
45763;BME280;37512;52.408;13.356;2022-11-15T18:32:01;100506.31;;;8.06;100.00
45763;BME280;37512;52.408;13.356;2022-11-15T18:36:08;100510.47;;;8.00;100.00
45763;BME280;37512;52.408;13.356;2022-11-15T18:40:10;100494.94;;;7.95;100.00
45763;BME280;37512;52.408;13.356;2022-11-15T18:44:12;100493.34;;;7.94;100.00
45763;BME280;37512;52.408;13.356;2022-11-15T18:48:14;100496.13;;;7.66;100.00
45763;BME280;37512;52.408;13.356;2022-11-15T18:52:16;100495.41;;;7.29;100.00
45763;BME280;37512;52.408;13.356;2022-11-15T18:56:19;100507.72;;;7.19;100.00
45763;BME280;37512;52.408;13.356;2022-11-15T19:00:21;100512.78;;;7.29;100.00
45763;BME280;37512;52.408;13.356;2022-11-15T19:04:22;100509.41;;;7.48;100.00
45763;BME280;37512;52.408;13.356;2022-11-15T19:08:23;100505.53;;;7.37;100.00
45763;BME280;37512;52.408;13.356;2022-11-15T19:12:25;100498.28;;;7.32;100.00
45763;BME280;37512;52.408;13.356;2022-11-15T19:16:27;100494.94;;;7.39;100.00
45763;BME280;37512;52.408;13.356;2022-11-15T19:20:29;100492.22;;;7.02;100.00
45763;BME280;37512;52.408;13.356;2022-11-15T19:24:31;100488.44;;;6.58;100.00
45763;BME280;37512;52.408;13.356;2022-11-15T19:28:33;100492.94;;;6.50;100.00
45763;BME280;37512;52.408;13.356;2022-11-15T19:32:34;100506.59;;;6.83;100.00
45763;BME280;37512;52.408;13.356;2022-11-15T19:36:41;100501.53;;;6.98;100.00
45763;BME280;37512;52.408;13.356;2022-11-15T19:40:46;100502.47;;;6.65;100.00
45763;BME280;37512;52.408;13.356;2022-11-15T19:44:47;100496.94;;;6.77;100.00
45763;BME280;37512;52.408;13.356;2022-11-15T19:48:50;100485.34;;;6.72;100.00
45763;BME280;37512;52.408;13.356;2022-11-15T19:52:51;100479.84;;;6.59;100.00
45763;BME280;37512;52.408;13.356;2022-11-15T19:56:53;100482.56;;;6.47;100.00
45763;BME280;37512;52.408;13.356;2022-11-15T20:01:23;100483.94;;;6.53;100.00
45763;BME280;37512;52.408;13.356;2022-11-15T20:05:25;100495.09;;;6.44;100.00
45763;BME280;37512;52.408;13.356;2022-11-15T20:09:26;100485.22;;;6.43;100.00
45763;BME280;37512;52.408;13.356;2022-11-15T20:13:28;100489.91;;;6.43;100.00
45763;BME280;37512;52.408;13.356;2022-11-15T20:17:30;100493.22;;;6.36;100.00
45763;BME280;37512;52.408;13.356;2022-11-15T20:21:31;100491.84;;;6.30;100.00
45763;BME280;37512;52.408;13.356;2022-11-15T20:25:34;100500.59;;;6.32;100.00
45763;BME280;37512;52.408;13.356;2022-11-15T20:29:38;100484.06;;;6.44;100.00
45763;BME280;37512;52.408;13.356;2022-11-15T20:33:45;100490.38;;;6.45;100.00
45763;BME280;37512;52.408;13.356;2022-11-15T20:37:46;100489.56;;;6.44;100.00
45763;BME280;37512;52.408;13.356;2022-11-15T20:41:48;100492.88;;;6.38;100.00
45763;BME280;37512;52.408;13.356;2022-11-15T20:45:50;100496.19;;;6.31;100.00
45763;BME280;37512;52.408;13.356;2022-11-15T20:49:51;100493.81;;;6.42;100.00
45763;BME280;37512;52.408;13.356;2022-11-15T20:53:54;100503.34;;;6.32;100.00
45763;BME280;37512;52.408;13.356;2022-11-15T20:57:56;100498.63;;;6.33;100.00
45763;BME280;37512;52.408;13.356;2022-11-15T21:01:57;100505.16;;;6.28;100.00
45763;BME280;37512;52.408;13.356;2022-11-15T21:05:59;100500.13;;;6.30;100.00
45763;BME280;37512;52.408;13.356;2022-11-15T21:10:01;100496.00;;;6.48;100.00
45763;BME280;37512;52.408;13.356;2022-11-15T21:14:21;100476.69;;;6.36;100.00
45763;BME280;37512;52.408;13.356;2022-11-15T21:18:23;100481.53;;;6.39;100.00
45763;BME280;37512;52.408;13.356;2022-11-15T21:22:24;100480.94;;;6.34;100.00
45763;BME280;37512;52.408;13.356;2022-11-15T21:26:26;100478.28;;;6.25;100.00
45763;BME280;37512;52.408;13.356;2022-11-15T21:30:27;100467.47;;;6.20;100.00
45763;BME280;37512;52.408;13.356;2022-11-15T21:34:29;100477.97;;;6.88;100.00
45763;BME280;37512;52.408;13.356;2022-11-15T21:38:31;100465.69;;;6.85;100.00
45763;BME280;37512;52.408;13.356;2022-11-15T21:42:33;100453.72;;;6.57;100.00
45763;BME280;37512;52.408;13.356;2022-11-15T21:46:34;100445.88;;;6.10;100.00
45763;BME280;37512;52.408;13.356;2022-11-15T21:50:37;100441.97;;;6.11;100.00
45763;BME280;37512;52.408;13.356;2022-11-15T21:54:39;100449.56;;;6.14;100.00
45763;BME280;37512;52.408;13.356;2022-11-15T21:58:41;100450.22;;;5.98;100.00
45763;BME280;37512;52.408;13.356;2022-11-15T22:02:43;100462.97;;;6.03;100.00
45763;BME280;37512;52.408;13.356;2022-11-15T22:06:44;100469.03;;;5.96;100.00
45763;BME280;37512;52.408;13.356;2022-11-15T22:10:46;100462.31;;;5.85;100.00
45763;BME280;37512;52.408;13.356;2022-11-15T22:14:48;100461.50;;;5.84;100.00
45763;BME280;37512;52.408;13.356;2022-11-15T22:18:49;100456.09;;;5.88;100.00
45763;BME280;37512;52.408;13.356;2022-11-15T22:22:51;100445.44;;;5.86;100.00
45763;BME280;37512;52.408;13.356;2022-11-15T22:26:53;100444.97;;;5.84;100.00
45763;BME280;37512;52.408;13.356;2022-11-15T22:30:55;100448.50;;;5.73;100.00
45763;BME280;37512;52.408;13.356;2022-11-15T22:34:57;100431.03;;;5.69;100.00